createdAt,value
2023-02-19T00:00:34.822Z,1011.58
2023-02-19T00:01:34.926Z,1011.58
2023-02-19T00:02:34.704Z,1011.57
2023-02-19T00:03:34.654Z,1011.62
2023-02-19T00:04:34.820Z,1011.64
2023-02-19T00:05:34.615Z,1011.59
2023-02-19T00:06:34.682Z,1011.61
2023-02-19T00:07:34.830Z,1011.60
2023-02-19T00:08:34.583Z,1011.64
2023-02-19T00:09:34.619Z,1011.65
2023-02-19T00:10:34.585Z,1011.58
2023-02-19T00:11:34.572Z,1011.59
2023-02-19T00:12:34.549Z,1011.63
2023-02-19T00:13:34.559Z,1011.59
2023-02-19T00:14:34.530Z,1011.64
2023-02-19T00:15:34.588Z,1011.59
2023-02-19T00:16:34.771Z,1011.56
2023-02-19T00:17:34.556Z,1011.57
2023-02-19T00:18:34.487Z,1011.59
2023-02-19T00:19:34.503Z,1011.54
2023-02-19T00:20:34.456Z,1011.52
2023-02-19T00:21:34.438Z,1011.52
2023-02-19T00:22:34.434Z,1011.51
2023-02-19T00:23:34.461Z,1011.48
2023-02-19T00:24:34.428Z,1011.47
2023-02-19T00:25:34.414Z,1011.50
2023-02-19T00:26:34.593Z,1011.48
2023-02-19T00:27:34.476Z,1011.43
2023-02-19T00:28:34.431Z,1011.43
2023-02-19T00:29:34.405Z,1011.43
2023-02-19T00:30:34.358Z,1011.40
2023-02-19T00:31:34.613Z,1011.46
2023-02-19T00:32:34.390Z,1011.47
2023-02-19T00:33:34.366Z,1011.45
2023-02-19T00:34:34.338Z,1011.42
2023-02-19T00:35:34.335Z,1011.46
2023-02-19T00:36:34.348Z,1011.44
2023-02-19T00:37:34.308Z,1011.43
2023-02-19T00:38:34.373Z,1011.49
2023-02-19T00:39:34.349Z,1011.43
2023-02-19T00:40:34.261Z,1011.43
2023-02-19T00:41:34.356Z,1011.45
2023-02-19T00:42:34.274Z,1011.44
2023-02-19T00:43:34.264Z,1011.49
2023-02-19T00:44:34.413Z,1011.47
2023-02-19T00:45:34.323Z,1011.46
2023-02-19T00:46:34.278Z,1011.45
2023-02-19T00:47:34.225Z,1011.43
2023-02-19T00:48:34.179Z,1011.42
2023-02-19T00:49:34.254Z,1011.41
2023-02-19T00:50:34.171Z,1011.41
2023-02-19T00:51:34.154Z,1011.41
2023-02-19T00:52:34.177Z,1011.42
2023-02-19T00:53:34.153Z,1011.43
2023-02-19T00:54:34.120Z,1011.41
2023-02-19T00:55:34.136Z,1011.40
2023-02-19T00:56:34.127Z,1011.38
2023-02-19T00:57:34.122Z,1011.38
2023-02-19T00:58:34.196Z,1011.40
2023-02-19T00:59:34.117Z,1011.36
2023-02-19T01:00:34.052Z,1011.38
2023-02-19T01:01:34.121Z,1011.38
2023-02-19T01:02:34.059Z,1011.36
2023-02-19T01:03:34.039Z,1011.36
2023-02-19T01:04:34.079Z,1011.36
2023-02-19T01:05:34.004Z,1011.38
2023-02-19T01:06:34.046Z,1011.40
2023-02-19T01:07:34.047Z,1011.42
2023-02-19T01:08:34.002Z,1011.42
2023-02-19T01:09:34.048Z,1011.41
2023-02-19T01:10:33.947Z,1011.42
2023-02-19T01:11:34.294Z,1011.41
2023-02-19T01:12:33.953Z,1011.42
2023-02-19T01:13:33.982Z,1011.42
2023-02-19T01:14:33.954Z,1011.44
2023-02-19T01:15:33.922Z,1011.44
2023-02-19T01:16:34.810Z,1011.44
2023-02-19T01:17:33.894Z,1011.39
2023-02-19T01:18:33.887Z,1011.43
2023-02-19T01:19:34.785Z,1011.46
2023-02-19T01:20:33.870Z,1011.39
2023-02-19T01:21:33.885Z,1011.42
2023-02-19T01:22:33.832Z,1011.44
2023-02-19T01:23:33.838Z,1011.41
2023-02-19T01:24:33.836Z,1011.35
2023-02-19T01:25:33.805Z,1011.31
2023-02-19T01:26:33.804Z,1011.31
2023-02-19T01:27:33.811Z,1011.33
2023-02-19T01:28:33.773Z,1011.35
2023-02-19T01:29:33.770Z,1011.32
2023-02-19T01:30:33.833Z,1011.36
2023-02-19T01:31:33.865Z,1011.33
2023-02-19T01:32:33.712Z,1011.35
2023-02-19T01:33:33.767Z,1011.36
2023-02-19T01:34:33.710Z,1011.37
2023-02-19T01:35:33.692Z,1011.34
2023-02-19T01:36:33.708Z,1011.39
2023-02-19T01:37:33.674Z,1011.41
2023-02-19T01:38:33.712Z,1011.40
2023-02-19T01:39:33.686Z,1011.36
2023-02-19T01:40:33.690Z,1011.41
2023-02-19T01:41:33.730Z,1011.44
2023-02-19T01:42:33.654Z,1011.40
2023-02-19T01:43:33.660Z,1011.36
2023-02-19T01:44:33.619Z,1011.47
2023-02-19T01:45:33.614Z,1011.47
2023-02-19T01:46:33.639Z,1011.49
2023-02-19T01:47:33.579Z,1011.48
2023-02-19T01:48:33.595Z,1011.50
2023-02-19T01:49:33.586Z,1011.44
2023-02-19T01:50:33.573Z,1011.49
2023-02-19T01:51:33.557Z,1011.43
2023-02-19T01:52:33.523Z,1011.45
2023-02-19T01:53:33.537Z,1011.44
2023-02-19T01:54:33.517Z,1011.41
2023-02-19T01:55:33.526Z,1011.43
2023-02-19T01:56:33.505Z,1011.43
2023-02-19T01:57:33.453Z,1011.41
2023-02-19T01:58:33.461Z,1011.42
2023-02-19T01:59:33.449Z,1011.42
2023-02-19T02:00:33.490Z,1011.44
2023-02-19T02:01:33.429Z,1011.46
2023-02-19T02:02:33.451Z,1011.46
2023-02-19T02:03:33.404Z,1011.44
2023-02-19T02:04:33.409Z,1011.46
2023-02-19T02:05:33.424Z,1011.48
2023-02-19T02:06:33.410Z,1011.47
2023-02-19T02:07:33.368Z,1011.53
2023-02-19T02:08:33.400Z,1011.52
2023-02-19T02:09:33.355Z,1011.53
2023-02-19T02:10:33.327Z,1011.56
2023-02-19T02:11:33.384Z,1011.53
2023-02-19T02:12:33.406Z,1011.55
2023-02-19T02:13:33.293Z,1011.52
2023-02-19T02:14:33.305Z,1011.55
2023-02-19T02:15:33.313Z,1011.54
2023-02-19T02:16:33.391Z,1011.52
2023-02-19T02:17:33.291Z,1011.53
2023-02-19T02:18:33.250Z,1011.52
2023-02-19T02:19:33.288Z,1011.54
2023-02-19T02:20:33.252Z,1011.52
2023-02-19T02:21:33.219Z,1011.54
2023-02-19T02:22:33.239Z,1011.56
2023-02-19T02:23:33.249Z,1011.58
2023-02-19T02:24:33.184Z,1011.52
2023-02-19T02:25:33.209Z,1011.55
2023-02-19T02:26:33.161Z,1011.58
2023-02-19T02:27:33.195Z,1011.57
2023-02-19T02:28:33.146Z,1011.50
2023-02-19T02:29:33.210Z,1011.46
2023-02-19T02:30:33.209Z,1011.50
2023-02-19T02:31:33.318Z,1011.49
2023-02-19T02:32:33.129Z,1011.46
2023-02-19T02:33:33.121Z,1011.49
2023-02-19T02:34:33.105Z,1011.54
2023-02-19T02:35:33.110Z,1011.49
2023-02-19T02:36:33.093Z,1011.53
2023-02-19T02:37:33.094Z,1011.53
2023-02-19T02:38:33.095Z,1011.53
2023-02-19T02:39:33.036Z,1011.53
2023-02-19T02:40:33.063Z,1011.50
2023-02-19T02:41:33.029Z,1011.53
2023-02-19T02:42:33.101Z,1011.47
2023-02-19T02:43:33.074Z,1011.51
2023-02-19T02:44:33.019Z,1011.50
2023-02-19T02:45:33.034Z,1011.52
2023-02-19T02:46:33.016Z,1011.50
2023-02-19T02:47:33.036Z,1011.45
2023-02-19T02:48:32.960Z,1011.51
2023-02-19T02:49:32.981Z,1011.57
2023-02-19T02:50:32.933Z,1011.51
2023-02-19T02:51:32.910Z,1011.52
2023-02-19T02:52:32.939Z,1011.52
2023-02-19T02:53:32.957Z,1011.56
2023-02-19T02:54:32.904Z,1011.56
2023-02-19T02:55:32.890Z,1011.54
2023-02-19T02:56:32.854Z,1011.48
2023-02-19T02:57:32.860Z,1011.55
2023-02-19T02:58:32.907Z,1011.57
2023-02-19T02:59:32.857Z,1011.64
2023-02-19T03:00:32.834Z,1011.65
2023-02-19T03:01:32.843Z,1011.52
2023-02-19T03:02:32.836Z,1011.58
2023-02-19T03:03:32.791Z,1011.54
2023-02-19T03:04:32.794Z,1011.56
2023-02-19T03:05:32.779Z,1011.55
2023-02-19T03:06:32.791Z,1011.57
2023-02-19T03:07:32.764Z,1011.58
2023-02-19T03:08:32.774Z,1011.60
2023-02-19T03:09:32.736Z,1011.61
2023-02-19T03:10:32.714Z,1011.57
2023-02-19T03:11:32.721Z,1011.64
2023-02-19T03:12:32.736Z,1011.60
2023-02-19T03:13:32.715Z,1011.62
2023-02-19T03:14:32.691Z,1011.63
2023-02-19T03:15:32.751Z,1011.65
2023-02-19T03:16:32.706Z,1011.64
2023-02-19T03:17:32.674Z,1011.65
2023-02-19T03:18:32.654Z,1011.64
2023-02-19T03:19:32.653Z,1011.65
2023-02-19T03:20:32.630Z,1011.68
2023-02-19T03:21:32.634Z,1011.70
2023-02-19T03:22:32.598Z,1011.71
2023-02-19T03:23:32.601Z,1011.72
2023-02-19T03:24:32.585Z,1011.76
2023-02-19T03:25:32.581Z,1011.77
2023-02-19T03:26:32.577Z,1011.76
2023-02-19T03:27:32.548Z,1011.79
2023-02-19T03:28:32.543Z,1011.84
2023-02-19T03:29:32.541Z,1011.79
2023-02-19T03:30:32.577Z,1011.81
2023-02-19T03:31:32.597Z,1011.81
2023-02-19T03:32:32.528Z,1011.83
2023-02-19T03:33:32.502Z,1011.80
2023-02-19T03:34:32.520Z,1011.78
2023-02-19T03:35:32.444Z,1011.82
2023-02-19T03:36:32.482Z,1011.86
2023-02-19T03:37:32.451Z,1011.87
2023-02-19T03:38:32.491Z,1011.88
2023-02-19T03:39:32.436Z,1011.89
2023-02-19T03:40:32.455Z,1011.87
2023-02-19T03:41:32.403Z,1011.88
2023-02-19T03:42:32.434Z,1011.91
2023-02-19T03:43:32.456Z,1011.91
2023-02-19T03:44:32.383Z,1011.93
2023-02-19T03:45:32.350Z,1011.97
2023-02-19T03:46:32.371Z,1011.98
2023-02-19T03:47:32.360Z,1011.98
2023-02-19T03:48:32.377Z,1012.03
2023-02-19T03:49:32.354Z,1012.02
2023-02-19T03:50:32.325Z,1012.01
2023-02-19T03:51:32.328Z,1012.03
2023-02-19T03:52:32.294Z,1012.06
2023-02-19T03:53:32.298Z,1012.03
2023-02-19T03:54:32.271Z,1012.07
2023-02-19T03:55:32.268Z,1012.06
2023-02-19T03:56:32.247Z,1012.05
2023-02-19T03:57:32.237Z,1012.05
2023-02-19T03:58:32.240Z,1012.08
2023-02-19T03:59:32.212Z,1012.09
2023-02-19T04:00:32.216Z,1012.14
2023-02-19T04:01:32.188Z,1012.16
2023-02-19T04:02:32.318Z,1012.07
2023-02-19T04:03:32.182Z,1012.14
2023-02-19T04:04:32.240Z,1012.17
2023-02-19T04:05:32.174Z,1012.11
2023-02-19T04:06:32.154Z,1012.11
2023-02-19T04:07:32.232Z,1012.15
2023-02-19T04:08:32.126Z,1012.17
2023-02-19T04:09:32.111Z,1012.20
2023-02-19T04:10:32.175Z,1012.21
2023-02-19T04:11:32.125Z,1012.22
2023-02-19T04:12:32.117Z,1012.24
2023-02-19T04:13:32.104Z,1012.24
2023-02-19T04:14:32.069Z,1012.28
2023-02-19T04:15:32.060Z,1012.29
2023-02-19T04:16:32.075Z,1012.23
2023-02-19T04:17:32.026Z,1012.22
2023-02-19T04:18:32.004Z,1012.33
2023-02-19T04:19:32.043Z,1012.33
2023-02-19T04:20:32.043Z,1012.38
2023-02-19T04:21:31.987Z,1012.35
2023-02-19T04:22:31.991Z,1012.39
2023-02-19T04:23:31.977Z,1012.39
2023-02-19T04:24:31.972Z,1012.42
2023-02-19T04:25:31.950Z,1012.42
2023-02-19T04:26:31.944Z,1012.45
2023-02-19T04:27:31.932Z,1012.43
2023-02-19T04:28:31.917Z,1012.48
2023-02-19T04:29:31.882Z,1012.50
2023-02-19T04:30:32.065Z,1012.47
2023-02-19T04:31:31.968Z,1012.48
2023-02-19T04:32:31.875Z,1012.44
2023-02-19T04:33:31.857Z,1012.48
2023-02-19T04:34:31.857Z,1012.51
2023-02-19T04:35:31.841Z,1012.58
2023-02-19T04:36:31.839Z,1012.52
2023-02-19T04:37:31.816Z,1012.53
2023-02-19T04:38:31.796Z,1012.55
2023-02-19T04:39:31.794Z,1012.56
2023-02-19T04:40:31.810Z,1012.56
2023-02-19T04:41:31.776Z,1012.58
2023-02-19T04:42:31.797Z,1012.62
2023-02-19T04:43:31.726Z,1012.60
2023-02-19T04:44:31.747Z,1012.64
2023-02-19T04:45:31.708Z,1012.65
2023-02-19T04:46:31.743Z,1012.63
2023-02-19T04:47:31.691Z,1012.66
2023-02-19T04:48:31.675Z,1012.67
2023-02-19T04:49:31.722Z,1012.67
2023-02-19T04:50:31.707Z,1012.71
2023-02-19T04:51:31.666Z,1012.72
2023-02-19T04:52:31.637Z,1012.68
2023-02-19T04:53:31.624Z,1012.71
2023-02-19T04:54:31.622Z,1012.74
2023-02-19T04:55:31.606Z,1012.69
2023-02-19T04:56:31.656Z,1012.72
2023-02-19T04:57:31.627Z,1012.74
2023-02-19T04:58:31.605Z,1012.71
2023-02-19T04:59:31.558Z,1012.75
2023-02-19T05:00:31.595Z,1012.71
2023-02-19T05:01:31.572Z,1012.72
2023-02-19T05:02:31.561Z,1012.77
2023-02-19T05:03:31.527Z,1012.76
2023-02-19T05:04:31.594Z,1012.76
2023-02-19T05:05:31.502Z,1012.75
2023-02-19T05:06:31.493Z,1012.79
2023-02-19T05:07:31.514Z,1012.77
2023-02-19T05:08:31.481Z,1012.75
2023-02-19T05:09:31.452Z,1012.75
2023-02-19T05:10:31.459Z,1012.77
2023-02-19T05:11:31.445Z,1012.86
2023-02-19T05:12:31.440Z,1012.88
2023-02-19T05:13:31.447Z,1012.94
2023-02-19T05:14:31.431Z,1012.94
2023-02-19T05:15:31.422Z,1012.97
2023-02-19T05:16:31.417Z,1012.99
2023-02-19T05:17:31.388Z,1013.01
2023-02-19T05:18:31.407Z,1013.00
2023-02-19T05:19:31.361Z,1013.06
2023-02-19T05:20:31.377Z,1013.02
2023-02-19T05:21:31.353Z,1013.01
2023-02-19T05:22:31.333Z,1013.07
2023-02-19T05:23:31.346Z,1013.08
2023-02-19T05:24:31.330Z,1013.10
2023-02-19T05:25:31.316Z,1013.06
2023-02-19T05:26:31.286Z,1013.06
2023-02-19T05:27:31.276Z,1013.07
2023-02-19T05:28:31.303Z,1013.06
2023-02-19T05:29:31.247Z,1013.07
2023-02-19T05:30:31.328Z,1013.12
2023-02-19T05:31:31.368Z,1013.13
2023-02-19T05:32:31.260Z,1013.13
2023-02-19T05:33:31.231Z,1013.13
2023-02-19T05:34:31.212Z,1013.15
2023-02-19T05:35:31.180Z,1013.16
2023-02-19T05:36:31.205Z,1013.16
2023-02-19T05:37:31.200Z,1013.19
2023-02-19T05:38:31.164Z,1013.21
2023-02-19T05:39:31.137Z,1013.20
2023-02-19T05:40:31.138Z,1013.28
2023-02-19T05:41:31.140Z,1013.28
2023-02-19T05:42:31.134Z,1013.31
2023-02-19T05:43:31.104Z,1013.29
2023-02-19T05:44:31.123Z,1013.31
2023-02-19T05:45:31.128Z,1013.31
2023-02-19T05:46:31.151Z,1013.27
2023-02-19T05:47:31.055Z,1013.30
2023-02-19T05:48:31.109Z,1013.32
2023-02-19T05:49:31.072Z,1013.30
2023-02-19T05:50:31.041Z,1013.32
2023-02-19T05:51:31.043Z,1013.35
2023-02-19T05:52:31.012Z,1013.35
2023-02-19T05:53:30.990Z,1013.32
2023-02-19T05:54:30.997Z,1013.36
2023-02-19T05:55:31.014Z,1013.34
2023-02-19T05:56:30.991Z,1013.35
2023-02-19T05:57:30.956Z,1013.34
2023-02-19T05:58:30.962Z,1013.37
2023-02-19T05:59:30.956Z,1013.40
2023-02-19T06:00:30.951Z,1013.40
2023-02-19T06:01:30.925Z,1013.40
2023-02-19T06:02:30.944Z,1013.40
2023-02-19T06:03:30.903Z,1013.42
2023-02-19T06:04:30.891Z,1013.41
2023-02-19T06:05:30.884Z,1013.37
2023-02-19T06:06:30.909Z,1013.42
2023-02-19T06:07:30.887Z,1013.42
2023-02-19T06:08:30.832Z,1013.41
2023-02-19T06:09:30.871Z,1013.42
2023-02-19T06:10:30.860Z,1013.46
2023-02-19T06:11:30.817Z,1013.41
2023-02-19T06:12:30.788Z,1013.47
2023-02-19T06:13:30.796Z,1013.51
2023-02-19T06:14:30.851Z,1013.48
2023-02-19T06:15:30.755Z,1013.51
2023-02-19T06:16:30.805Z,1013.52
2023-02-19T06:17:30.724Z,1013.56
2023-02-19T06:18:30.719Z,1013.54
2023-02-19T06:19:30.686Z,1013.55
2023-02-19T06:20:30.679Z,1013.56
2023-02-19T06:21:30.706Z,1013.58
2023-02-19T06:22:30.668Z,1013.59
2023-02-19T06:23:30.637Z,1013.59
2023-02-19T06:24:30.638Z,1013.60
2023-02-19T06:25:30.600Z,1013.60
2023-02-19T06:26:30.636Z,1013.64
2023-02-19T06:27:30.608Z,1013.65
2023-02-19T06:28:30.597Z,1013.66
2023-02-19T06:29:30.590Z,1013.64
2023-02-19T06:30:30.646Z,1013.64
2023-02-19T06:31:30.672Z,1013.67
2023-02-19T06:32:30.582Z,1013.68
2023-02-19T06:33:30.564Z,1013.73
2023-02-19T06:34:30.587Z,1013.69
2023-02-19T06:35:30.498Z,1013.73
2023-02-19T06:36:30.503Z,1013.72
2023-02-19T06:37:30.502Z,1013.75
2023-02-19T06:38:30.480Z,1013.74
2023-02-19T06:39:30.452Z,1013.73
2023-02-19T06:40:30.490Z,1013.77
2023-02-19T06:41:30.428Z,1013.80
2023-02-19T06:42:30.436Z,1013.81
2023-02-19T06:43:30.448Z,1013.82
2023-02-19T06:44:30.410Z,1013.84
2023-02-19T06:45:30.423Z,1013.84
2023-02-19T06:46:30.474Z,1013.88
2023-02-19T06:47:30.368Z,1013.95
2023-02-19T06:48:30.389Z,1014.00
2023-02-19T06:49:30.402Z,1014.05
2023-02-19T06:50:30.376Z,1014.04
2023-02-19T06:51:30.363Z,1014.06
2023-02-19T06:52:30.340Z,1014.08
2023-02-19T06:53:30.372Z,1014.11
2023-02-19T06:54:30.299Z,1014.10
2023-02-19T06:55:30.292Z,1014.12
2023-02-19T06:56:30.353Z,1014.14
2023-02-19T06:57:30.315Z,1014.15
2023-02-19T06:58:30.466Z,1014.17
2023-02-19T06:59:30.251Z,1014.21
2023-02-19T07:00:30.319Z,1014.25
2023-02-19T07:01:30.245Z,1014.30
2023-02-19T07:02:30.231Z,1014.35
2023-02-19T07:03:30.281Z,1014.36
2023-02-19T07:04:30.295Z,1014.37
2023-02-19T07:05:30.217Z,1014.43
2023-02-19T07:06:30.253Z,1014.47
2023-02-19T07:07:30.221Z,1014.48
2023-02-19T07:08:30.163Z,1014.49
2023-02-19T07:09:30.163Z,1014.52
2023-02-19T07:10:30.227Z,1014.59
2023-02-19T07:11:30.132Z,1014.55
2023-02-19T07:12:30.135Z,1014.55
2023-02-19T07:13:30.165Z,1014.60
2023-02-19T07:14:30.142Z,1014.56
2023-02-19T07:15:30.124Z,1014.59
2023-02-19T07:16:30.219Z,1014.58
2023-02-19T07:17:30.075Z,1014.58
2023-02-19T07:18:30.060Z,1014.59
2023-02-19T07:19:30.092Z,1014.60
2023-02-19T07:20:30.138Z,1014.61
2023-02-19T07:21:30.009Z,1014.62
2023-02-19T07:22:30.064Z,1014.63
2023-02-19T07:23:30.014Z,1014.66
2023-02-19T07:24:30.002Z,1014.66
2023-02-19T07:25:29.988Z,1014.69
2023-02-19T07:26:29.985Z,1014.70
2023-02-19T07:27:29.998Z,1014.74
2023-02-19T07:28:29.950Z,1014.80
2023-02-19T07:29:29.920Z,1014.82
2023-02-19T07:30:30.021Z,1014.84
2023-02-19T07:31:30.068Z,1014.81
2023-02-19T07:32:29.932Z,1014.81
2023-02-19T07:33:29.889Z,1014.82
2023-02-19T07:34:29.880Z,1014.84
2023-02-19T07:35:29.920Z,1014.84
2023-02-19T07:36:29.872Z,1014.87
2023-02-19T07:37:29.911Z,1014.87
2023-02-19T07:38:29.879Z,1014.87
2023-02-19T07:39:29.877Z,1014.89
2023-02-19T07:40:29.888Z,1014.92
2023-02-19T07:41:29.818Z,1014.91
2023-02-19T07:42:29.804Z,1014.90
2023-02-19T07:43:29.859Z,1014.91
2023-02-19T07:44:29.762Z,1015.00
2023-02-19T07:45:29.869Z,1014.93
2023-02-19T07:46:29.779Z,1014.95
2023-02-19T07:47:29.749Z,1015.00
2023-02-19T07:48:29.738Z,1015.04
2023-02-19T07:49:29.803Z,1015.02
2023-02-19T07:50:29.738Z,1015.04
2023-02-19T07:51:29.694Z,1015.05
2023-02-19T07:52:29.718Z,1015.04
2023-02-19T07:53:29.694Z,1015.04
2023-02-19T07:54:29.719Z,1015.04
2023-02-19T07:55:29.668Z,1015.05
2023-02-19T07:56:29.693Z,1015.07
2023-02-19T07:57:29.646Z,1015.10
2023-02-19T07:58:29.694Z,1015.14
2023-02-19T07:59:29.644Z,1015.14
2023-02-19T08:00:29.613Z,1015.16
2023-02-19T08:01:29.615Z,1015.21
2023-02-19T08:02:29.625Z,1015.25
2023-02-19T08:03:29.666Z,1015.28
2023-02-19T08:04:29.604Z,1015.31
2023-02-19T08:05:29.602Z,1015.33
2023-02-19T08:06:29.625Z,1015.33
2023-02-19T08:07:29.547Z,1015.35
2023-02-19T08:08:29.567Z,1015.39
2023-02-19T08:09:29.535Z,1015.38
2023-02-19T08:10:29.515Z,1015.35
2023-02-19T08:11:29.545Z,1015.31
2023-02-19T08:12:29.486Z,1015.32
2023-02-19T08:13:29.479Z,1015.33
2023-02-19T08:14:29.498Z,1015.34
2023-02-19T08:15:29.475Z,1015.35
2023-02-19T08:16:42.694Z,1015.38
2023-02-19T08:17:29.463Z,1015.37
2023-02-19T08:18:29.428Z,1015.41
2023-02-19T08:19:29.466Z,1015.40
2023-02-19T08:20:29.419Z,1015.39
2023-02-19T08:21:29.387Z,1015.39
2023-02-19T08:22:29.432Z,1015.37
2023-02-19T08:23:29.392Z,1015.39
2023-02-19T08:24:29.410Z,1015.40
2023-02-19T08:25:29.358Z,1015.40
2023-02-19T08:26:29.430Z,1015.43
2023-02-19T08:27:29.382Z,1015.42
2023-02-19T08:28:29.334Z,1015.44
2023-02-19T08:29:29.347Z,1015.48
2023-02-19T08:30:29.470Z,1015.48
2023-02-19T08:31:29.373Z,1015.49
2023-02-19T08:32:29.327Z,1015.49
2023-02-19T08:33:29.273Z,1015.52
2023-02-19T08:34:29.270Z,1015.51
2023-02-19T08:35:29.276Z,1015.52
2023-02-19T08:36:29.300Z,1015.51
2023-02-19T08:37:29.292Z,1015.50
2023-02-19T08:38:29.255Z,1015.53
2023-02-19T08:39:29.250Z,1015.51
2023-02-19T08:40:29.295Z,1015.53
2023-02-19T08:41:29.193Z,1015.56
2023-02-19T08:42:29.176Z,1015.55
2023-02-19T08:43:29.155Z,1015.56
2023-02-19T08:44:29.176Z,1015.57
2023-02-19T08:45:29.225Z,1015.58
2023-02-19T08:46:29.156Z,1015.59
2023-02-19T08:47:29.127Z,1015.59
2023-02-19T08:48:29.113Z,1015.59
2023-02-19T08:49:29.160Z,1015.58
2023-02-19T08:50:29.079Z,1015.60
2023-02-19T08:51:29.114Z,1015.62
2023-02-19T08:52:29.079Z,1015.68
2023-02-19T08:53:29.049Z,1015.73
2023-02-19T08:54:29.100Z,1015.76
2023-02-19T08:55:29.132Z,1015.75
2023-02-19T08:56:29.014Z,1015.78
2023-02-19T08:57:29.039Z,1015.81
2023-02-19T08:58:28.988Z,1015.82
2023-02-19T08:59:29.005Z,1015.88
2023-02-19T09:00:28.974Z,1015.88
2023-02-19T09:01:29.088Z,1015.90
2023-02-19T09:02:28.959Z,1015.90
2023-02-19T09:03:28.971Z,1015.89
2023-02-19T09:04:29.016Z,1015.90
2023-02-19T09:05:28.942Z,1015.92
2023-02-19T09:06:28.938Z,1015.94
2023-02-19T09:07:28.905Z,1015.94
2023-02-19T09:08:29.226Z,1015.91
2023-02-19T09:09:28.896Z,1015.93
2023-02-19T09:10:28.917Z,1015.94
2023-02-19T09:11:28.853Z,1015.96
2023-02-19T09:12:28.844Z,1015.99
2023-02-19T09:13:28.858Z,1016.01
2023-02-19T09:14:28.850Z,1015.99
2023-02-19T09:15:28.834Z,1016.03
2023-02-19T09:16:28.840Z,1016.05
2023-02-19T09:17:28.839Z,1016.04
2023-02-19T09:18:28.872Z,1016.05
2023-02-19T09:19:28.807Z,1016.08
2023-02-19T09:20:28.772Z,1016.09
2023-02-19T09:21:28.784Z,1016.13
2023-02-19T09:22:28.747Z,1016.17
2023-02-19T09:23:28.759Z,1016.19
2023-02-19T09:24:28.746Z,1016.17
2023-02-19T09:25:28.731Z,1016.21
2023-02-19T09:26:28.730Z,1016.19
2023-02-19T09:27:28.750Z,1016.20
2023-02-19T09:28:28.736Z,1016.25
2023-02-19T09:29:28.708Z,1016.26
2023-02-19T09:30:28.681Z,1016.30
2023-02-19T09:31:28.716Z,1016.29
2023-02-19T09:32:28.651Z,1016.32
2023-02-19T09:33:28.654Z,1016.32
2023-02-19T09:34:28.686Z,1016.31
2023-02-19T09:35:28.656Z,1016.29
2023-02-19T09:36:28.615Z,1016.27
2023-02-19T09:37:28.634Z,1016.25
2023-02-19T09:38:28.599Z,1016.25
2023-02-19T09:39:28.604Z,1016.25
2023-02-19T09:40:28.572Z,1016.27
2023-02-19T09:41:28.607Z,1016.33
2023-02-19T09:42:28.554Z,1016.33
2023-02-19T09:43:28.580Z,1016.35
2023-02-19T09:44:28.557Z,1016.38
2023-02-19T09:45:28.536Z,1016.40
2023-02-19T09:46:28.543Z,1016.42
2023-02-19T09:47:28.525Z,1016.44
2023-02-19T09:48:28.503Z,1016.48
2023-02-19T09:49:28.504Z,1016.50
2023-02-19T09:50:28.512Z,1016.55
2023-02-19T09:51:30.096Z,1016.55
2023-02-19T09:52:28.449Z,1016.56
2023-02-19T09:53:28.451Z,1016.63
2023-02-19T09:54:28.443Z,1016.61
2023-02-19T09:55:28.624Z,1016.69
2023-02-19T09:56:28.428Z,1016.71
2023-02-19T09:57:28.383Z,1016.73
2023-02-19T09:58:28.469Z,1016.77
2023-02-19T09:59:28.466Z,1016.79
2023-02-19T10:00:28.362Z,1016.81
2023-02-19T10:01:28.391Z,1016.86
2023-02-19T10:02:28.357Z,1016.92
2023-02-19T10:03:28.335Z,1016.97
2023-02-19T10:04:28.369Z,1017.01
2023-02-19T10:05:28.389Z,1017.07
2023-02-19T10:06:28.289Z,1017.06
2023-02-19T10:07:28.332Z,1017.12
2023-02-19T10:08:28.317Z,1017.15
2023-02-19T10:09:28.292Z,1017.23
2023-02-19T10:10:28.292Z,1017.25
2023-02-19T10:11:28.269Z,1017.26
2023-02-19T10:12:28.278Z,1017.24
2023-02-19T10:13:28.257Z,1017.25
2023-02-19T10:14:28.266Z,1017.23
2023-02-19T10:15:28.247Z,1017.30
2023-02-19T10:16:28.240Z,1017.35
2023-02-19T10:17:28.219Z,1017.40
2023-02-19T10:18:28.168Z,1017.44
2023-02-19T10:19:28.195Z,1017.45
2023-02-19T10:20:28.196Z,1017.47
2023-02-19T10:21:28.194Z,1017.51
2023-02-19T10:22:28.138Z,1017.58
2023-02-19T10:23:28.145Z,1017.61
2023-02-19T10:24:28.171Z,1017.66
2023-02-19T10:25:28.119Z,1017.72
2023-02-19T10:26:28.132Z,1017.68
2023-02-19T10:27:28.110Z,1017.57
2023-02-19T10:28:28.068Z,1017.60
2023-02-19T10:29:28.095Z,1017.68
2023-02-19T10:30:28.196Z,1017.63
2023-02-19T10:31:28.301Z,1017.61
2023-02-19T10:32:28.044Z,1017.64
2023-02-19T10:33:28.060Z,1017.69
2023-02-19T10:34:28.085Z,1017.71
2023-02-19T10:35:28.038Z,1017.72
2023-02-19T10:36:31.317Z,1017.70
2023-02-19T10:37:27.996Z,1017.68
2023-02-19T10:38:28.497Z,1017.67
2023-02-19T10:39:27.995Z,1017.67
2023-02-19T10:40:27.974Z,1017.67
2023-02-19T10:41:27.966Z,1017.67
2023-02-19T10:42:27.925Z,1017.70
2023-02-19T10:43:27.937Z,1017.75
2023-02-19T10:44:27.957Z,1017.83
2023-02-19T10:45:27.923Z,1017.88
2023-02-19T10:46:28.051Z,1017.93
2023-02-19T10:47:27.917Z,1017.95
2023-02-19T10:48:27.874Z,1018.01
2023-02-19T10:49:27.884Z,1018.10
2023-02-19T10:50:27.894Z,1018.14
2023-02-19T10:51:27.863Z,1018.15
2023-02-19T10:52:27.828Z,1018.15
2023-02-19T10:53:27.819Z,1018.12
2023-02-19T10:54:27.823Z,1018.08
2023-02-19T10:55:27.809Z,1018.05
2023-02-19T10:56:27.823Z,1018.03
2023-02-19T10:57:27.893Z,1018.02
2023-02-19T10:58:27.765Z,1018.02
2023-02-19T10:59:27.790Z,1018.06
2023-02-19T11:00:27.751Z,1018.11
2023-02-19T11:01:27.790Z,1018.15
2023-02-19T11:02:27.735Z,1018.17
2023-02-19T11:03:27.772Z,1018.16
2023-02-19T11:04:27.833Z,1018.16
2023-02-19T11:05:27.723Z,1018.18
2023-02-19T11:06:27.701Z,1018.20
2023-02-19T11:07:27.708Z,1018.22
2023-02-19T11:08:27.681Z,1018.24
2023-02-19T11:09:27.669Z,1018.26
2023-02-19T11:10:27.649Z,1018.29
2023-02-19T11:11:27.663Z,1018.30
2023-02-19T11:12:27.605Z,1018.30
2023-02-19T11:13:27.635Z,1018.27
2023-02-19T11:14:27.740Z,1018.21
2023-02-19T11:15:27.574Z,1018.16
2023-02-19T11:16:27.650Z,1018.17
2023-02-19T11:17:27.616Z,1018.21
2023-02-19T11:18:27.575Z,1018.25
2023-02-19T11:19:27.590Z,1018.29
2023-02-19T11:20:27.521Z,1018.30
2023-02-19T11:21:27.555Z,1018.31
2023-02-19T11:22:27.582Z,1018.30
2023-02-19T11:23:27.547Z,1018.33
2023-02-19T11:24:27.494Z,1018.37
2023-02-19T11:25:27.499Z,1018.38
2023-02-19T11:26:27.460Z,1018.35
2023-02-19T11:27:27.473Z,1018.29
2023-02-19T11:28:27.464Z,1018.21
2023-02-19T11:29:28.434Z,1018.17
2023-02-19T11:30:27.483Z,1018.16
2023-02-19T11:31:27.541Z,1018.16
2023-02-19T11:32:27.496Z,1018.18
2023-02-19T11:33:27.538Z,1018.19
2023-02-19T11:34:27.400Z,1018.18
2023-02-19T11:35:27.390Z,1018.17
2023-02-19T11:36:29.958Z,1018.18
2023-02-19T11:37:27.359Z,1018.19
2023-02-19T11:38:27.371Z,1018.19
2023-02-19T11:39:27.355Z,1018.19
2023-02-19T11:40:27.316Z,1018.19
2023-02-19T11:41:27.334Z,1018.18
2023-02-19T11:42:29.402Z,1018.17
2023-02-19T11:43:27.321Z,1018.15
2023-02-19T11:44:27.290Z,1018.13
2023-02-19T11:45:27.352Z,1018.12
2023-02-19T11:46:27.315Z,1018.14
2023-02-19T11:47:27.289Z,1018.15
2023-02-19T11:48:28.627Z,1018.15
2023-02-19T11:49:27.288Z,1018.14
2023-02-19T11:50:27.229Z,1018.15
2023-02-19T11:51:27.226Z,1018.17
2023-02-19T11:52:27.234Z,1018.17
2023-02-19T11:53:27.200Z,1018.17
2023-02-19T11:54:27.160Z,1018.17
2023-02-19T11:55:27.251Z,1018.14
2023-02-19T11:56:27.178Z,1018.10
2023-02-19T11:57:27.147Z,1018.08
2023-02-19T11:58:27.175Z,1018.08
2023-02-19T11:59:27.119Z,1018.12
2023-02-19T12:00:27.149Z,1018.15
2023-02-19T12:01:27.123Z,1018.17
2023-02-19T12:02:27.141Z,1018.19
2023-02-19T12:03:27.097Z,1018.22
2023-02-19T12:04:27.118Z,1018.24
2023-02-19T12:05:27.310Z,1018.24